Time;durP1;ratioP1;P1;durP2;ratioP2;P2;SDS_P1;SDS_P2;PMS_P1;PMS_P2;Temp;Humidity;BMP_temperature;BMP_pressure;BME280_temperature;BME280_humidity;BME280_pressure;Samples;Min_cycle;Max_cycle;Signal;HPM_P1;HPM_P2
2022/06/29 00:00:52;;;;;;;10.13;6.20;;;;;;;24.14;94.26;100153.75;4935386;29;20472;-83
2022/06/29 00:03:20;;;;;;;10.15;6.22;;;;;;;24.23;91.04;100151.81;4935766;29;20082;-80
2022/06/29 00:05:48;;;;;;;8.20;5.72;;;;;;;24.14;92.04;100152.91;4935395;29;20079;-77
2022/06/29 00:08:17;;;;;;;11.30;5.95;;;;;;;24.20;89.84;100143.97;4935485;29;20046;-77
2022/06/29 00:10:46;;;;;;;9.40;6.03;;;;;;;24.20;90.82;100146.69;4935635;29;20123;-76
2022/06/29 00:13:15;;;;;;;10.85;6.22;;;;;;;23.80;96.36;100145.13;4935677;29;20406;-77
2022/06/29 00:15:43;;;;;;;9.02;6.10;;;;;;;23.89;94.79;100144.91;4935274;29;20044;-77
2022/06/29 00:18:11;;;;;;;8.10;6.38;;;;;;;23.95;93.74;100137.88;4935520;29;20055;-77
2022/06/29 00:20:40;;;;;;;11.77;6.88;;;;;;;24.03;92.77;100147.84;4935452;29;20044;-77
2022/06/29 00:23:08;;;;;;;10.27;6.20;;;;;;;23.91;94.41;100148.28;4935688;29;20039;-79
2022/06/29 00:25:36;;;;;;;9.93;6.22;;;;;;;23.80;96.68;100150.59;4935102;29;20055;-77
2022/06/29 00:28:06;;;;;;;11.18;6.28;;;;;;;23.82;98.08;100151.25;4935334;29;20048;-76
2022/06/29 00:30:34;;;;;;;10.20;6.60;;;;;;;23.89;96.12;100144.06;4935149;29;20512;-77
2022/06/29 00:33:02;;;;;;;9.85;6.03;;;;;;;23.65;99.78;100134.19;4935297;29;20110;-76
2022/06/29 00:35:31;;;;;;;7.80;5.75;;;;;;;23.61;99.21;100138.28;4934989;29;20054;-74
2022/06/29 00:37:59;;;;;;;13.05;6.65;;;;;;;23.62;98.78;100139.97;4935754;29;20400;-73
2022/06/29 00:40:27;;;;;;;9.10;5.93;;;;;;;23.61;99.83;100141.00;4920409;29;20519;-75
2022/06/29 00:42:55;;;;;;;12.05;6.22;;;;;;;23.79;96.23;100136.13;4938793;29;20560;-75
2022/06/29 00:45:25;;;;;;;8.18;6.15;;;;;;;23.65;97.69;100134.19;4938739;29;20047;-75
2022/06/29 00:47:53;;;;;;;10.02;6.05;;;;;;;23.55;100.00;100128.09;4938353;29;20082;-75
2022/06/29 00:50:22;;;;;;;6.95;5.25;;;;;;;23.38;100.00;100130.88;4938758;29;20048;-74
2022/06/29 00:52:50;;;;;;;7.97;5.75;;;;;;;23.42;100.00;100124.03;4938153;29;20093;-75
2022/06/29 00:55:22;;;;;;;7.95;5.45;;;;;;;23.44;100.00;100126.59;4938617;29;20468;-74
2022/06/29 00:57:54;;;;;;;7.50;5.77;;;;;;;23.28;100.00;100115.81;4938475;29;20048;-75
2022/06/29 01:00:22;;;;;;;10.07;5.30;;;;;;;23.32;100.00;100120.69;4938410;29;20048;-74
2022/06/29 01:02:52;;;;;;;10.07;5.60;;;;;;;23.38;100.00;100109.13;4938249;29;20292;-75
2022/06/29 01:05:27;;;;;;;8.02;5.20;;;;;;;23.34;100.00;100113.19;4938592;29;20039;-75
2022/06/29 01:07:56;;;;;;;8.00;5.43;;;;;;;23.46;99.84;100112.81;4938363;29;20508;-76
2022/06/29 01:10:26;;;;;;;6.28;5.15;;;;;;;23.34;100.00;100117.78;4921303;29;20569;-75
2022/06/29 01:12:54;;;;;;;9.43;5.85;;;;;;;23.28;100.00;100115.81;4938082;29;20079;-75
2022/06/29 01:15:23;;;;;;;9.57;5.82;;;;;;;23.32;100.00;100109.81;4938307;29;20493;-75
2022/06/29 01:17:53;;;;;;;7.93;5.55;;;;;;;23.38;100.00;100109.13;4938003;29;20054;-75
2022/06/29 01:20:21;;;;;;;8.00;5.60;;;;;;;23.29;100.00;100110.19;4938105;29;20090;-77
2022/06/29 01:22:52;;;;;;;8.40;5.95;;;;;;;23.29;100.00;100110.19;4937797;29;20095;-77
2022/06/29 01:25:20;;;;;;;11.05;6.90;;;;;;;23.25;100.00;100108.81;4938257;29;20409;-77
2022/06/29 01:27:49;;;;;;;8.88;6.45;;;;;;;23.13;100.00;100113.81;4937949;29;20039;-77
2022/06/29 01:30:17;;;;;;;9.68;6.68;;;;;;;23.13;100.00;100110.25;4938005;29;20063;-77
2022/06/29 01:32:45;;;;;;;8.52;6.10;;;;;;;23.15;100.00;100102.75;4937826;29;20046;-77
2022/06/29 01:35:16;;;;;;;10.35;6.50;;;;;;;23.15;100.00;100113.63;4937906;29;20044;-77
2022/06/29 01:37:44;;;;;;;10.55;6.43;;;;;;;23.19;100.00;100112.28;4937601;29;20054;-77
2022/06/29 01:40:14;;;;;;;11.05;6.25;;;;;;;23.14;100.00;100111.94;4937632;29;20047;-77
2022/06/29 01:42:42;;;;;;;9.10;6.05;;;;;;;23.08;100.00;100116.22;4937484;29;20040;-77
2022/06/29 01:45:11;;;;;;;8.70;6.20;;;;;;;22.98;100.00;100106.59;4937816;29;20401;-77
2022/06/29 01:47:39;;;;;;;8.23;5.93;;;;;;;23.01;100.00;100111.66;4937382;29;20494;-77
2022/06/29 01:50:08;;;;;;;8.05;6.00;;;;;;;22.87;100.00;100107.78;4920297;29;20055;-77
2022/06/29 01:52:36;;;;;;;8.90;6.50;;;;;;;22.89;100.00;100107.63;4936576;29;20047;-77
2022/06/29 01:55:05;;;;;;;8.30;6.50;;;;;;;22.93;100.00;100112.53;4937574;29;20055;-77
2022/06/29 01:57:35;;;;;;;9.13;6.25;;;;;;;22.85;100.00;100107.97;4937402;29;20074;-76
2022/06/29 02:00:04;;;;;;;7.50;5.95;;;;;;;22.77;100.00;100094.34;4920358;29;20058;-77
2022/06/29 02:02:32;;;;;;;12.10;6.40;;;;;;;22.69;100.00;100094.41;4937447;29;20127;-77
2022/06/29 02:05:00;;;;;;;8.07;5.93;;;;;;;22.89;100.00;100091.31;4937056;29;20107;-78
2022/06/29 02:07:29;;;;;;;8.75;6.07;;;;;;;22.77;100.00;100088.91;4937431;29;20493;-76
2022/06/29 02:09:57;;;;;;;6.78;5.53;;;;;;;22.80;100.00;100094.03;4937064;29;20035;-84
2022/06/29 02:12:25;;;;;;;9.02;5.97;;;;;;;22.68;100.00;100095.44;4937056;29;20556;-83
2022/06/29 02:14:55;;;;;;;9.27;5.97;;;;;;;22.57;100.00;100098.50;4936658;29;20043;-84
2022/06/29 02:17:24;;;;;;;10.68;5.93;;;;;;;22.69;100.00;100097.13;4936977;29;20050;-83
2022/06/29 02:19:52;;;;;;;9.02;5.95;;;;;;;22.62;100.00;100101.56;4936641;29;20126;-82
2022/06/29 02:22:20;;;;;;;10.25;5.95;;;;;;;22.65;100.00;100101.19;4919748;29;20106;-83
2022/06/29 02:24:49;;;;;;;9.57;5.95;;;;;;;22.53;100.00;100094.44;4936463;29;20560;-84
2022/06/29 02:27:17;;;;;;;8.07;6.05;;;;;;;22.48;100.00;100102.25;4936838;29;20101;-85
2022/06/29 02:29:45;;;;;;;8.18;6.13;;;;;;;22.40;100.00;100099.56;4936793;29;20123;-78
2022/06/29 02:35:00;;;;;;;7.35;5.78;;;;;;;22.50;100.00;100092.91;4919780;29;20119;-77
2022/06/29 02:37:29;;;;;;;8.80;5.90;;;;;;;22.56;100.00;100091.38;4936949;29;20099;-76
2022/06/29 02:39:57;;;;;;;10.13;6.00;;;;;;;22.46;100.00;100085.28;4936621;29;20044;-78
2022/06/29 02:42:26;;;;;;;6.90;5.68;;;;;;;22.56;100.00;100094.94;4936574;29;20086;-77
2022/06/29 02:45:14;;;;;;;10.23;6.00;;;;;;;22.63;100.00;100091.53;4936772;29;20047;-76
2022/06/29 02:47:50;;;;;;;7.53;5.80;;;;;;;22.59;100.00;100090.19;4936357;29;20047;-78
2022/06/29 02:50:18;;;;;;;8.77;5.70;;;;;;;22.60;100.00;100092.72;4936598;29;20051;-78
2022/06/29 02:52:46;;;;;;;8.27;5.95;;;;;;;22.51;100.00;100089.19;4936611;29;20052;-80
2022/06/29 02:55:15;;;;;;;9.82;5.85;;;;;;;22.61;100.00;100093.56;4936651;29;20405;-79
2022/06/29 02:57:43;;;;;;;9.30;6.50;;;;;;;22.87;100.00;100087.91;4936312;29;20058;-77
2022/06/29 03:00:13;;;;;;;8.13;6.10;;;;;;;22.80;100.00;100093.19;4936366;29;20051;-78
2022/06/29 03:02:42;;;;;;;9.15;6.00;;;;;;;22.80;100.00;100083.16;4935470;29;20043;-78
2022/06/29 03:05:11;;;;;;;7.45;5.65;;;;;;;22.70;100.00;100093.38;4936279;29;20541;-78
2022/06/29 03:07:40;;;;;;;10.07;5.78;;;;;;;22.59;100.00;100091.03;4935828;29;20047;-75
2022/06/29 03:10:09;;;;;;;9.05;6.13;;;;;;;22.70;100.00;100087.94;4936234;29;20046;-78
2022/06/29 03:12:37;;;;;;;9.10;5.78;;;;;;;22.76;100.00;100092.66;4936364;29;20070;-78
2022/06/29 03:15:06;;;;;;;9.35;6.32;;;;;;;22.95;100.00;100090.59;4936168;29;20044;-78
2022/06/29 03:17:35;;;;;;;9.68;5.85;;;;;;;23.01;100.00;100089.91;4936070;29;20122;-78
2022/06/29 03:20:04;;;;;;;8.55;5.78;;;;;;;23.16;100.00;100092.72;4935582;29;20531;-75
2022/06/29 03:22:34;;;;;;;8.80;5.82;;;;;;;23.31;100.00;100101.84;4935821;29;20442;-77
2022/06/29 03:25:03;;;;;;;8.90;5.78;;;;;;;23.45;100.00;100102.94;4935689;29;20070;-77
2022/06/29 03:27:32;;;;;;;9.68;5.68;;;;;;;23.38;100.00;100106.38;4936102;29;20048;-78
2022/06/29 03:30:01;;;;;;;8.65;5.72;;;;;;;23.50;100.00;100103.25;4918698;29;20106;-78
2022/06/29 03:32:29;;;;;;;10.45;6.28;;;;;;;23.53;100.00;100102.91;4935978;29;20055;-77
2022/06/29 03:34:57;;;;;;;9.50;5.78;;;;;;;23.67;100.00;100107.63;4935721;29;20047;-79
2022/06/29 03:37:25;;;;;;;9.27;5.50;;;;;;;24.03;100.00;100104.25;4936037;29;20044;-80
2022/06/29 03:39:56;;;;;;;9.30;5.65;;;;;;;24.46;95.28;100100.84;4935702;29;20390;-86
2022/06/29 03:42:24;;;;;;;10.75;5.85;;;;;;;24.28;96.74;100103.88;4936203;29;20044;-86
2022/06/29 03:44:54;;;;;;;8.73;5.88;;;;;;;24.56;93.67;100097.84;4918514;29;20056;-86
2022/06/29 03:47:22;;;;;;;8.85;5.68;;;;;;;24.87;88.72;100094.94;4935999;29;20043;-79
2022/06/29 03:49:51;;;;;;;8.50;5.25;;;;;;;24.91;90.43;100095.44;4935628;29;20043;-78
2022/06/29 03:52:19;;;;;;;9.32;5.13;;;;;;;25.21;85.15;100105.31;4935776;29;20449;-78
2022/06/29 03:54:47;;;;;;;9.43;5.50;;;;;;;25.45;83.08;100114.19;4935520;29;20047;-78
2022/06/29 03:57:17;;;;;;;8.50;5.50;;;;;;;25.42;81.96;100114.59;4918779;29;20052;-79
2022/06/29 03:59:45;;;;;;;9.45;5.38;;;;;;;25.27;82.08;100107.25;4918420;29;20062;-76
2022/06/29 04:02:13;;;;;;;10.07;5.78;;;;;;;25.53;80.16;100105.91;4935931;29;20445;-89
2022/06/29 04:04:42;;;;;;;9.60;5.43;;;;;;;25.56;79.43;100109.06;4935655;29;20044;-81
2022/06/29 04:07:10;;;;;;;9.60;5.50;;;;;;;25.50;80.43;100109.88;4936228;29;20058;-79
2022/06/29 04:09:38;;;;;;;9.60;5.50;;;;;;;25.51;80.39;100116.16;4935597;29;20552;-85
2022/06/29 04:12:07;;;;;;;8.18;5.50;;;;;;;25.20;80.93;100116.44;4935441;29;20046;-81
2022/06/29 04:14:36;;;;;;;6.60;5.55;;;;;;;25.80;77.74;100102.44;4936808;29;20043;-80
2022/06/29 04:17:04;;;;;;;8.82;5.53;;;;;;;25.87;76.96;100102.53;4939113;29;20059;-83
2022/06/29 04:19:33;;;;;;;9.90;5.32;;;;;;;25.84;76.53;100097.44;4939192;29;20066;-81
2022/06/29 04:22:01;;;;;;;9.18;5.60;;;;;;;26.37;72.90;100085.13;4938679;29;20413;-82
2022/06/29 04:24:29;;;;;;;12.98;5.60;;;;;;;26.82;70.22;100091.09;4938748;29;20136;-80
2022/06/29 04:26:58;;;;;;;10.32;5.60;;;;;;;27.28;66.40;100091.34;4939122;29;20576;-84
2022/06/29 04:29:26;;;;;;;10.32;5.55;;;;;;;27.28;65.95;100099.56;4939775;29;20047;-83
2022/06/29 04:31:56;;;;;;;7.90;5.50;;;;;;;27.40;64.02;100099.81;4939014;29;20048;-84
2022/06/29 04:34:24;;;;;;;9.02;5.30;;;;;;;27.81;62.00;100107.16;4938958;29;20052;-74
2022/06/29 04:36:52;;;;;;;8.43;5.78;;;;;;;27.77;61.69;100112.19;4938814;29;20040;-71
2022/06/29 04:39:20;;;;;;;9.60;5.18;;;;;;;27.87;60.16;100112.63;4938735;29;20077;-74
2022/06/29 04:41:48;;;;;;;6.47;5.10;;;;;;;27.91;59.59;100102.94;4941926;29;20051;-74
2022/06/29 04:44:16;;;;;;;7.60;5.55;;;;;;;27.75;59.84;100110.72;4939920;29;20067;-73
2022/06/29 04:46:44;;;;;;;8.75;5.32;;;;;;;27.90;59.48;100114.13;4938663;29;20481;-74
2022/06/29 04:49:14;;;;;;;11.00;5.28;;;;;;;28.15;58.17;100109.72;4921544;29;20090;-73
2022/06/29 04:51:42;;;;;;;8.18;5.75;;;;;;;28.32;57.50;100103.84;4938571;29;20051;-74
2022/06/29 04:54:10;;;;;;;6.72;5.15;;;;;;;28.77;55.83;100107.63;4938552;29;20477;-74
2022/06/29 04:56:39;;;;;;;9.20;5.97;;;;;;;28.98;55.74;100109.28;4938448;29;20103;-74
2022/06/29 04:59:07;;;;;;;8.32;5.10;;;;;;;29.47;52.54;100107.81;4938369;29;20418;-76
2022/06/29 05:01:35;;;;;;;7.47;5.00;;;;;;;29.62;51.77;100109.22;4938489;29;20502;-76
2022/06/29 05:04:03;;;;;;;7.97;5.32;;;;;;;30.03;50.40;100113.44;4938141;29;20513;-76
2022/06/29 05:06:33;;;;;;;8.95;5.25;;;;;;;30.10;48.88;100113.41;4920843;29;20208;-75
2022/06/29 05:09:01;;;;;;;6.72;5.10;;;;;;;30.57;47.82;100109.19;4938119;29;20067;-75
2022/06/29 05:11:29;;;;;;;7.68;5.10;;;;;;;30.35;48.99;100110.66;4938414;29;20047;-75
2022/06/29 05:13:58;;;;;;;8.77;5.22;;;;;;;30.54;47.77;100112.41;4937834;29;20059;-75
2022/06/29 05:16:26;;;;;;;6.32;5.22;;;;;;;30.30;48.05;100114.09;4937958;29;20051;-76
2022/06/29 05:18:55;;;;;;;9.85;5.25;;;;;;;30.91;46.47;100120.75;4920528;29;20052;-75
2022/06/29 05:21:23;;;;;;;7.97;4.78;;;;;;;31.12;46.11;100119.47;4938152;29;20051;-75
2022/06/29 05:23:52;;;;;;;7.18;4.82;;;;;;;31.24;45.68;100115.72;4937418;29;20383;-74
2022/06/29 05:26:20;;;;;;;7.20;4.97;;;;;;;30.93;46.37;100113.94;4937064;29;20044;-73
2022/06/29 05:28:49;;;;;;;11.18;5.53;;;;;;;31.29;45.11;100112.31;4937655;29;20044;-74
2022/06/29 05:31:18;;;;;;;8.15;4.90;;;;;;;31.51;44.44;100109.88;4923422;29;20094;-69
2022/06/29 05:33:48;;;;;;;8.77;5.28;;;;;;;31.23;45.04;100105.78;4938990;29;20099;-76
2022/06/29 05:36:17;;;;;;;11.15;5.22;;;;;;;31.67;44.24;100113.94;4937626;29;20450;-74
2022/06/29 05:38:45;;;;;;;8.23;4.88;;;;;;;32.59;42.46;100117.19;4937660;29;20043;-73
2022/06/29 05:41:15;;;;;;;9.82;5.13;;;;;;;32.08;43.23;100113.13;4937577;29;20122;-74
2022/06/29 05:43:49;;;;;;;6.32;4.75;;;;;;;31.67;43.51;100106.50;4937307;29;20040;-75
2022/06/29 05:46:18;;;;;;;8.35;4.70;;;;;;;32.53;41.29;100112.63;4937470;29;20568;-76
2022/06/29 05:48:47;;;;;;;9.50;4.60;;;;;;;32.29;41.75;100107.03;4937593;29;20090;-77
2022/06/29 05:51:15;;;;;;;9.98;5.00;;;;;;;32.23;42.16;100113.50;4937417;29;20047;-75
2022/06/29 05:53:44;;;;;;;8.32;4.95;;;;;;;32.55;42.50;100102.19;4937640;29;20051;-76
2022/06/29 05:56:14;;;;;;;7.35;4.85;;;;;;;32.96;41.32;100101.22;4937188;29;20063;-76
2022/06/29 05:58:42;;;;;;;7.18;4.80;;;;;;;33.36;40.66;100095.75;4937633;29;20048;-74
2022/06/29 06:01:10;;;;;;;8.38;4.88;;;;;;;32.98;41.12;100094.38;4920001;29;20497;-77
2022/06/29 06:03:39;;;;;;;8.75;4.85;;;;;;;33.26;40.81;100089.97;4920346;29;20143;-77
2022/06/29 06:06:07;;;;;;;8.70;5.25;;;;;;;33.89;38.95;100089.06;4936791;29;20050;-78
2022/06/29 06:08:36;;;;;;;5.85;4.50;;;;;;;32.87;40.67;100086.94;4937042;29;20462;-77
2022/06/29 06:11:04;;;;;;;6.65;5.13;;;;;;;32.62;40.87;100092.72;4936835;29;20485;-77
2022/06/29 06:13:34;;;;;;;9.85;5.07;;;;;;;33.39;39.90;100091.66;4937339;29;20047;-77
2022/06/29 06:16:02;;;;;;;8.05;4.95;;;;;;;33.75;39.09;100087.66;4936944;29;20043;-74
2022/06/29 06:18:50;;;;;;;9.63;4.85;;;;;;;33.55;39.55;100083.41;4936749;29;20548;-74
2022/06/29 06:21:18;;;;;;;10.35;5.20;;;;;;;33.98;38.61;100092.28;4936837;29;20484;-74
2022/06/29 06:23:46;;;;;;;8.20;5.10;;;;;;;33.39;39.48;100098.00;4936754;29;20044;-74
2022/06/29 06:26:15;;;;;;;10.48;5.00;;;;;;;34.10;38.16;100091.09;4936691;29;20048;-76
2022/06/29 06:28:44;;;;;;;11.50;5.15;;;;;;;33.92;39.29;100080.25;4936965;29;20040;-76
2022/06/29 06:31:12;;;;;;;10.27;4.95;;;;;;;34.60;38.59;100084.72;4936740;29;20047;-76
2022/06/29 06:33:41;;;;;;;7.10;4.68;;;;;;;34.69;38.07;100087.91;4938316;29;20051;-76
2022/06/29 06:36:09;;;;;;;6.07;4.80;;;;;;;34.78;36.88;100085.53;4929912;29;20051;-77
2022/06/29 06:38:37;;;;;;;8.85;4.82;;;;;;;34.81;36.54;100071.16;4949912;28;20040;-77
2022/06/29 06:41:23;;;;;;;8.23;4.80;;;;;;;33.86;38.00;100081.22;4927293;29;20057;-77
2022/06/29 06:43:54;;;;;;;7.45;4.63;;;;;;;34.68;35.96;100075.16;4943847;29;20126;-77
2022/06/29 06:46:23;;;;;;;9.50;5.03;;;;;;;35.36;34.75;100064.72;4948687;29;20047;-76
2022/06/29 06:48:52;;;;;;;8.80;4.60;;;;;;;35.68;34.87;100068.41;4955622;29;20047;-77
2022/06/29 06:51:22;;;;;;;7.75;4.80;;;;;;;35.36;35.50;100070.25;4955243;29;20489;-80
2022/06/29 06:53:50;;;;;;;7.22;4.88;;;;;;;35.29;35.36;100074.06;4938397;29;20070;-74
2022/06/29 06:56:19;;;;;;;9.85;4.90;;;;;;;35.99;34.34;100069.56;4938079;29;20051;-77
2022/06/29 06:58:47;;;;;;;8.32;4.82;;;;;;;35.17;35.06;100067.81;4955490;29;20559;-75
2022/06/29 07:01:23;;;;;;;8.48;4.82;;;;;;;35.10;35.68;100058.84;4955582;29;20400;-77
2022/06/29 07:03:52;;;;;;;9.73;4.70;;;;;;;34.40;36.52;100067.81;4938067;29;20138;-79
2022/06/29 07:06:20;;;;;;;9.35;4.70;;;;;;;33.99;37.76;100067.13;4945557;28;20122;-78
2022/06/29 07:08:49;;;;;;;10.00;4.75;;;;;;;33.55;38.51;100071.50;4956725;28;20102;-78
2022/06/29 07:11:18;;;;;;;8.07;5.00;;;;;;;32.58;40.02;100063.88;4974233;28;20162;-77
2022/06/29 07:13:46;;;;;;;8.65;4.80;;;;;;;32.88;40.75;100066.53;4974609;28;20494;-78
2022/06/29 07:16:14;;;;;;;7.18;4.70;;;;;;;32.31;41.17;100059.91;4974468;28;20449;-78
2022/06/29 07:18:43;;;;;;;8.02;4.68;;;;;;;32.14;41.14;100059.78;4974443;28;20134;-77
2022/06/29 07:21:12;;;;;;;9.35;4.70;;;;;;;32.27;40.94;100072.50;4974160;28;20038;-77
2022/06/29 07:23:40;;;;;;;7.35;5.15;;;;;;;32.02;41.88;100061.66;4974613;28;20097;-78
2022/06/29 07:26:08;;;;;;;7.57;4.88;;;;;;;31.94;42.24;100056.47;4973716;28;20065;-78
2022/06/29 07:28:38;;;;;;;8.73;5.35;;;;;;;31.75;42.21;100056.56;4974277;28;20054;-78
2022/06/29 07:31:07;;;;;;;9.05;4.97;;;;;;;31.30;42.51;100056.13;4973947;28;20428;-77
2022/06/29 07:33:36;;;;;;;6.57;4.65;;;;;;;31.16;42.79;100054.56;4974075;28;20097;-78
2022/06/29 07:36:06;;;;;;;5.93;5.05;;;;;;;31.14;43.30;100053.97;4974152;28;20046;-77
2022/06/29 07:38:34;;;;;;;10.70;4.93;;;;;;;31.40;42.99;100052.81;4974161;28;20488;-77
2022/06/29 07:41:02;;;;;;;7.47;4.60;;;;;;;31.59;42.22;100058.03;4973853;28;20110;-77
2022/06/29 07:43:31;;;;;;;8.18;5.22;;;;;;;31.40;42.60;100047.28;4974101;28;20047;-78
2022/06/29 07:46:00;;;;;;;6.68;4.75;;;;;;;31.45;41.48;100055.69;4973783;28;20051;-77
2022/06/29 07:48:28;;;;;;;7.50;4.90;;;;;;;31.75;41.27;100051.06;4956769;28;20555;-77
2022/06/29 07:50:57;;;;;;;10.48;4.95;;;;;;;32.04;40.60;100045.69;4977195;28;20073;-77
2022/06/29 07:53:27;;;;;;;9.30;4.57;;;;;;;32.11;40.44;100051.94;4961007;28;20046;-76
2022/06/29 07:55:55;;;;;;;10.07;5.30;;;;;;;31.67;41.60;100053.28;4977917;28;20484;-80
2022/06/29 07:58:25;;;;;;;13.77;4.70;;;;;;;31.75;41.24;100051.06;4978237;28;20046;-78
2022/06/29 08:00:53;;;;;;;8.75;4.68;;;;;;;31.87;40.46;100051.06;4960733;28;20097;-78
2022/06/29 08:03:22;;;;;;;8.15;4.38;;;;;;;32.08;40.60;100052.44;4977861;28;20101;-78
2022/06/29 08:05:50;;;;;;;6.68;4.28;;;;;;;32.11;40.37;100043.66;4978026;28;20472;-77
2022/06/29 08:08:18;;;;;;;7.15;4.60;;;;;;;32.21;39.69;100052.19;4977529;28;20053;-76
2022/06/29 08:10:48;;;;;;;7.47;4.68;;;;;;;32.18;39.78;100050.75;4977886;28;20050;-77
2022/06/29 08:13:16;;;;;;;6.82;4.25;;;;;;;32.36;40.31;100046.25;4977483;28;20465;-77
2022/06/29 08:15:45;;;;;;;6.28;4.35;;;;;;;32.44;40.41;100037.63;4977890;28;20436;-77
2022/06/29 08:18:14;;;;;;;7.53;4.60;;;;;;;32.35;39.96;100039.91;4977467;28;20054;-77
2022/06/29 08:20:43;;;;;;;11.05;4.43;;;;;;;32.22;40.22;100040.06;4960284;28;20057;-77
2022/06/29 08:23:12;;;;;;;8.18;4.53;;;;;;;32.25;40.21;100036.88;4977524;28;20098;-76
2022/06/29 08:25:40;;;;;;;9.07;4.38;;;;;;;32.44;39.31;100034.84;4960160;28;20082;-77
2022/06/29 08:28:29;;;;;;;8.38;4.28;;;;;;;32.25;39.41;100034.09;4977323;28;20054;-78
2022/06/29 08:30:58;;;;;;;8.18;3.97;;;;;;;32.34;38.48;100038.22;4959855;28;20051;-80
2022/06/29 08:33:26;;;;;;;7.38;4.20;;;;;;;32.46;37.91;100036.28;4960234;28;20109;-77
2022/06/29 08:35:54;;;;;;;5.63;4.18;;;;;;;32.40;38.17;100026.19;4977375;28;20047;-78
2022/06/29 08:38:22;;;;;;;6.50;4.03;;;;;;;32.30;37.99;100031.47;4977326;28;20078;-77
2022/06/29 08:40:51;;;;;;;5.95;3.60;;;;;;;32.32;37.91;100029.31;4959690;28;20082;-77
2022/06/29 08:43:22;;;;;;;5.47;3.70;;;;;;;32.32;38.41;100023.78;4977094;28;20055;-79
2022/06/29 08:45:53;;;;;;;6.78;3.80;;;;;;;32.40;38.09;100020.69;4977220;28;20046;-79
2022/06/29 08:48:22;;;;;;;7.10;4.10;;;;;;;32.58;38.18;100025.22;4976838;28;20042;-77
2022/06/29 08:50:52;;;;;;;5.88;4.13;;;;;;;32.80;38.24;100021.81;4976832;28;20804;-77
2022/06/29 08:53:23;;;;;;;8.85;4.03;;;;;;;32.95;37.10;100014.75;4976661;28;20130;-78
2022/06/29 08:55:55;;;;;;;8.50;4.22;;;;;;;32.89;37.51;100018.47;4977115;28;20093;-78
2022/06/29 08:58:25;;;;;;;6.63;4.20;;;;;;;32.89;36.97;100006.59;4959295;28;20500;-77
2022/06/29 09:00:55;;;;;;;6.35;3.83;;;;;;;32.82;36.40;100016.94;4975478;28;20051;-77
2022/06/29 09:03:24;;;;;;;5.63;3.72;;;;;;;32.93;36.50;100008.63;4976724;28;20439;-78
2022/06/29 09:05:55;;;;;;;5.43;3.95;;;;;;;32.89;36.18;100015.72;4959258;28;20054;-76
2022/06/29 09:08:24;;;;;;;7.55;4.30;;;;;;;32.79;36.46;100006.34;4976605;28;20043;-78
2022/06/29 09:10:52;;;;;;;6.43;3.78;;;;;;;33.00;36.60;100003.78;4976830;28;20548;-77
2022/06/29 09:13:21;;;;;;;5.95;3.78;;;;;;;32.92;36.87;100004.19;4976454;28;20488;-77
2022/06/29 09:15:59;;;;;;;7.50;4.03;;;;;;;32.89;36.92;99995.53;4976622;28;20067;-77
2022/06/29 09:18:30;;;;;;;5.47;3.67;;;;;;;32.80;36.41;99992.28;4976605;28;20078;-77
2022/06/29 09:21:00;;;;;;;10.07;4.27;;;;;;;32.92;36.70;99995.91;4976290;28;20050;-77
2022/06/29 09:23:29;;;;;;;5.05;3.85;;;;;;;33.27;36.09;100004.06;4976635;28;20642;-76
2022/06/29 09:25:58;;;;;;;5.80;3.58;;;;;;;33.36;35.58;99998.16;4958936;28;20055;-77
2022/06/29 09:28:28;;;;;;;6.57;3.50;;;;;;;33.46;34.93;99996.41;4976178;28;20043;-77
2022/06/29 09:30:57;;;;;;;7.47;3.95;;;;;;;33.38;35.08;100002.34;4976251;28;20089;-77
2022/06/29 09:33:27;;;;;;;7.30;3.75;;;;;;;33.35;35.71;100004.75;4976052;28;20047;-77
2022/06/29 09:36:06;;;;;;;6.95;4.10;;;;;;;33.45;35.25;99997.50;4976301;28;20441;-76
2022/06/29 09:38:35;;;;;;;5.15;3.75;;;;;;;33.07;35.94;100000.06;4976272;28;20054;-77
2022/06/29 09:41:05;;;;;;;6.45;4.03;;;;;;;33.20;35.61;99997.00;4976078;28;20074;-78
2022/06/29 09:43:35;;;;;;;7.97;3.92;;;;;;;33.34;35.99;99992.84;4976148;28;20054;-77
2022/06/29 09:46:06;;;;;;;6.57;3.50;;;;;;;33.19;34.54;99987.03;4975818;28;20081;-76
2022/06/29 09:48:37;;;;;;;5.72;3.47;;;;;;;33.35;34.87;99988.16;4976319;28;20047;-77
2022/06/29 09:51:30;;;;;;;7.43;3.72;;;;;;;33.45;34.82;99983.69;4975886;28;20130;-76
2022/06/29 09:54:00;;;;;;;6.65;3.80;;;;;;;33.50;35.02;99986.56;4976113;28;20413;-78
2022/06/29 09:56:31;;;;;;;5.68;3.40;;;;;;;33.73;33.22;99979.19;4976317;28;20050;-76
2022/06/29 09:59:00;;;;;;;5.10;3.40;;;;;;;33.92;31.72;99972.38;4988154;28;20057;-77
2022/06/29 10:04:18;;;;;;;6.97;3.55;;;;;;;33.95;30.45;99969.09;4984680;28;20062;-77
2022/06/29 10:06:47;;;;;;;5.18;2.83;;;;;;;33.64;30.19;99976.00;4979651;28;20536;-76
2022/06/29 10:09:15;;;;;;;5.07;3.30;;;;;;;33.68;31.15;99970.81;4976553;28;20367;-77
2022/06/29 10:15:06;;;;;;;5.20;3.20;;;;;;;34.04;30.24;99956.50;4975959;28;20043;-77
2022/06/29 10:17:50;;;;;;;4.70;3.28;;;;;;;34.23;29.97;99953.47;4958531;28;20105;-75
2022/06/29 10:20:31;;;;;;;4.75;3.10;;;;;;;34.31;30.11;99941.94;4958033;28;20137;-77
2022/06/29 10:22:59;;;;;;;10.15;3.30;;;;;;;34.21;29.54;99942.66;4975602;28;20065;-77
2022/06/29 10:25:28;;;;;;;5.93;3.22;;;;;;;34.12;30.74;99939.47;4975085;28;20420;-77
2022/06/29 10:28:10;;;;;;;9.20;3.55;;;;;;;34.31;30.65;99939.19;4975334;28;20042;-77
2022/06/29 10:30:39;;;;;;;5.43;3.55;;;;;;;34.32;30.61;99938.91;4975366;28;20448;-75
2022/06/29 10:33:34;;;;;;;6.00;3.25;;;;;;;34.11;30.27;99926.72;4975034;28;20476;-77
2022/06/29 10:36:05;;;;;;;6.40;3.05;;;;;;;34.02;30.90;99922.72;4958136;28;20504;-77
2022/06/29 10:39:14;;;;;;;6.63;3.40;;;;;;;34.05;30.74;99933.28;4975280;28;20441;-77
2022/06/29 10:44:55;;;;;;;6.88;2.95;;;;;;;34.37;29.35;99913.25;4957687;28;20493;-77
2022/06/29 10:47:24;;;;;;;5.68;3.45;;;;;;;34.40;29.88;99924.69;4957410;28;20109;-78
2022/06/29 10:50:24;;;;;;;5.28;3.60;;;;;;;34.36;29.83;99929.03;4974683;28;20436;-75
2022/06/29 10:52:57;;;;;;;6.20;3.38;;;;;;;34.35;29.85;99920.97;4975070;28;20049;-76
2022/06/29 10:55:28;;;;;;;4.80;3.38;;;;;;;34.39;29.59;99913.88;4974749;28;20042;-77
2022/06/29 10:57:57;;;;;;;7.05;3.20;;;;;;;34.43;29.72;99917.78;4975118;28;20038;-74
2022/06/29 11:00:27;;;;;;;6.35;3.30;;;;;;;34.53;30.01;99917.06;4957112;28;20133;-78
2022/06/29 11:02:55;;;;;;;6.15;3.28;;;;;;;34.67;29.87;99910.06;4957511;28;20055;-76
2022/06/29 11:05:25;;;;;;;5.32;3.30;;;;;;;34.55;27.79;99909.34;4974888;28;20039;-77
2022/06/29 11:13:23;;;;;;;6.90;3.67;;;;;;;34.38;29.49;99895.56;4932375;28;20051;-78
2022/06/29 11:15:54;;;;;;;6.55;3.67;;;;;;;34.22;30.47;99888.13;4973517;28;20077;-76
2022/06/29 11:18:28;;;;;;;8.02;3.92;;;;;;;34.25;29.98;99895.91;4974310;28;20105;-78
2022/06/29 11:21:03;;;;;;;8.73;3.67;;;;;;;34.45;29.53;99887.91;4974681;28;20050;-78
2022/06/29 11:23:33;;;;;;;5.00;3.50;;;;;;;34.62;29.40;99883.13;4973880;28;20043;-77
2022/06/29 11:26:02;;;;;;;5.60;3.50;;;;;;;34.69;28.32;99888.47;4974421;28;20065;-77
2022/06/29 11:28:32;;;;;;;4.50;3.42;;;;;;;34.73;28.61;99884.91;4974339;28;20548;-77
2022/06/29 11:31:08;;;;;;;5.43;3.60;;;;;;;34.63;28.86;99873.72;4974462;28;20074;-77
2022/06/29 11:33:38;;;;;;;4.65;3.40;;;;;;;34.36;29.33;99881.13;4956801;28;20054;-76
2022/06/29 11:36:09;;;;;;;6.25;3.45;;;;;;;34.30;29.51;99868.31;4974259;28;20050;-77
2022/06/29 11:38:39;;;;;;;5.28;3.58;;;;;;;34.51;29.50;99864.72;4974227;28;20078;-77
2022/06/29 11:41:13;;;;;;;7.18;3.65;;;;;;;34.66;29.70;99867.69;4957129;28;20057;-77
2022/06/29 11:44:04;;;;;;;7.50;3.67;;;;;;;34.60;28.55;99868.72;4974166;28;20081;-77
2022/06/29 11:46:35;;;;;;;4.55;3.50;;;;;;;34.56;29.30;99853.72;4956693;28;20057;-77
2022/06/29 11:51:55;;;;;;;5.72;3.47;;;;;;;34.83;29.23;99859.25;4973950;28;20069;-77
2022/06/29 11:54:39;;;;;;;6.88;3.85;;;;;;;35.00;28.59;99860.03;4973697;28;20055;-77
2022/06/29 11:57:10;;;;;;;5.25;3.42;;;;;;;34.87;27.76;99856.81;4972893;28;20047;-77